Time;durP1;ratioP1;P1;durP2;ratioP2;P2;SDS_P1;SDS_P2;PMS_P1;PMS_P2;Temp;Humidity;BMP_temperature;BMP_pressure;BME280_temperature;BME280_humidity;BME280_pressure;Samples;Min_cycle;Max_cycle;Signal;HPM_P1;HPM_P2
2022/08/06 00:00:41;;;;;;;;;;;;;;;-143.91;100.00;64079.06;3040293;19;19939;-61
2022/08/06 00:01:42;;;;;;;;;;;;;;;-143.91;100.00;64079.06;3041418;19;19927;-61
2022/08/06 00:02:43;;;;;;;;;;;;;;;-143.91;100.00;64079.06;3042083;19;20514;-60
2022/08/06 00:03:44;;;;;;;;;;;;;;;-143.91;100.00;64079.06;3039531;19;19922;-60
2022/08/06 00:04:45;;;;;;;;;;;;;;;-143.91;100.00;64079.06;3038906;19;19917;-61
2022/08/06 00:05:46;;;;;;;;;;;;;;;-143.91;100.00;64079.06;3039218;19;19918;-60
2022/08/06 00:06:46;;;;;;;;;;;;;;;-143.91;100.00;64079.06;3040129;19;19974;-61
2022/08/06 00:07:47;;;;;;;;;;;;;;;-143.91;100.00;64079.06;3040279;19;20758;-61
2022/08/06 00:08:48;;;;;;;;;;;;;;;-143.91;100.00;64079.06;3042177;19;19914;-61
2022/08/06 00:09:49;;;;;;;;;;;;;;;-143.91;100.00;64079.06;3039197;19;19939;-61
2022/08/06 00:10:50;;;;;;;;;;;;;;;-143.91;100.00;64079.06;3042133;19;20286;-61
2022/08/06 00:11:51;;;;;;;;;;;;;;;-143.91;100.00;64079.06;3039076;19;19918;-61
2022/08/06 00:12:51;;;;;;;;;;;;;;;-143.91;100.00;64079.06;3040596;19;19911;-61
2022/08/06 00:13:52;;;;;;;;;;;;;;;-143.91;100.00;64079.06;3041708;19;19915;-61
2022/08/06 00:14:53;;;;;;;;;;;;;;;-143.91;100.00;64079.06;3039474;19;19951;-60
2022/08/06 00:15:54;;;;;;;;;;;;;;;-143.91;100.00;64079.06;3040130;19;20392;-61
2022/08/06 00:16:55;;;;;;;;;;;;;;;-143.91;100.00;64079.06;3037793;19;19927;-61
2022/08/06 00:17:56;;;;;;;;;;;;;;;-143.91;100.00;64079.06;3038382;19;19923;-61
2022/08/06 00:18:56;;;;;;;;;;;;;;;-143.91;100.00;64079.06;3041724;19;19929;-61
2022/08/06 00:19:58;;;;;;;;;;;;;;;-143.91;100.00;64079.06;3039569;19;19982;-61
2022/08/06 00:20:58;;;;;;;;;;;;;;;-143.91;100.00;64079.06;3039962;19;19934;-61
2022/08/06 00:21:59;;;;;;;;;;;;;;;-143.91;100.00;64079.06;3039654;19;19934;-61
2022/08/06 00:23:00;;;;;;;;;;;;;;;-143.91;100.00;64079.06;3042227;19;20883;-61
2022/08/06 00:24:01;;;;;;;;;;;;;;;-143.91;100.00;64079.06;3041040;19;19915;-60
2022/08/06 00:25:02;;;;;;;;;;;;;;;-143.91;100.00;64079.06;3044184;19;19918;-60
2022/08/06 00:26:03;;;;;;;;;;;;;;;-143.91;100.00;64079.06;3045816;19;19933;-60
2022/08/06 00:27:03;;;;;;;;;;;;;;;-143.91;100.00;64079.06;3042787;19;19923;-61
2022/08/06 00:28:04;;;;;;;;;;;;;;;-143.91;100.00;64079.06;3041008;19;19926;-61
2022/08/06 00:29:05;;;;;;;;;;;;;;;-143.91;100.00;64079.06;3044469;19;20552;-61
2022/08/06 00:30:07;;;;;;;;;;;;;;;-143.91;100.00;64079.06;3036878;19;19930;-61
2022/08/06 00:31:07;;;;;;;;;;;;;;;-143.91;100.00;64079.06;3044840;19;20732;-61
2022/08/06 00:32:08;;;;;;;;;;;;;;;-143.91;100.00;64079.06;3043891;19;20296;-61
2022/08/06 00:33:09;;;;;;;;;;;;;;;-143.91;100.00;64079.06;3040854;19;19915;-61
2022/08/06 00:34:10;;;;;;;;;;;;;;;-143.91;100.00;64079.06;3045328;19;19919;-61
2022/08/06 00:35:11;;;;;;;;;;;;;;;-143.91;100.00;64079.06;3042858;19;19918;-61
2022/08/06 00:36:12;;;;;;;;;;;;;;;-143.91;100.00;64079.06;3041342;19;19930;-61
2022/08/06 00:37:13;;;;;;;;;;;;;;;-143.91;100.00;64079.06;3044014;19;19994;-61
2022/08/06 00:38:13;;;;;;;;;;;;;;;-143.91;100.00;64079.06;3042055;19;20419;-61
2022/08/06 00:39:14;;;;;;;;;;;;;;;-143.91;100.00;64079.06;3045026;19;19915;-62
2022/08/06 00:40:15;;;;;;;;;;;;;;;-143.91;100.00;64079.06;3041050;19;20380;-61
2022/08/06 00:41:16;;;;;;;;;;;;;;;-143.91;100.00;64079.06;3043928;19;20047;-60
2022/08/06 00:42:17;;;;;;;;;;;;;;;-143.91;100.00;64079.06;3043387;19;19942;-60
2022/08/06 00:43:18;;;;;;;;;;;;;;;-143.91;100.00;64079.06;3042119;19;20539;-61
2022/08/06 00:44:19;;;;;;;;;;;;;;;-143.91;100.00;64079.06;3043954;19;19982;-61
2022/08/06 00:45:19;;;;;;;;;;;;;;;-143.91;100.00;64079.06;3042924;19;20328;-60
2022/08/06 00:46:20;;;;;;;;;;;;;;;-143.91;100.00;64079.06;3044816;19;19923;-61
2022/08/06 00:47:21;;;;;;;;;;;;;;;-143.91;100.00;64079.06;3039951;19;20694;-60
2022/08/06 00:48:22;;;;;;;;;;;;;;;-143.91;100.00;64079.06;3044606;19;19976;-61
2022/08/06 00:49:23;;;;;;;;;;;;;;;-143.91;100.00;64079.06;3043744;19;19927;-60
2022/08/06 00:50:23;;;;;;;;;;;;;;;-143.91;100.00;64079.06;3041603;19;19930;-61
2022/08/06 00:51:24;;;;;;;;;;;;;;;-143.91;100.00;64079.06;3043095;19;19923;-61
2022/08/06 00:52:25;;;;;;;;;;;;;;;-143.91;100.00;64079.06;3044204;19;20327;-61
2022/08/06 00:53:26;;;;;;;;;;;;;;;-143.91;100.00;64079.06;3045654;19;20763;-60
2022/08/06 00:54:27;;;;;;;;;;;;;;;-143.91;100.00;64079.06;3045019;19;19934;-61
2022/08/06 00:55:28;;;;;;;;;;;;;;;-143.91;100.00;64079.06;3045842;19;19919;-61
2022/08/06 00:56:28;;;;;;;;;;;;;;;-143.91;100.00;64079.06;3045994;19;19918;-60
2022/08/06 00:57:29;;;;;;;;;;;;;;;-143.91;100.00;64079.06;3045079;19;20344;-61
2022/08/06 00:58:30;;;;;;;;;;;;;;;-143.91;100.00;64079.06;3045251;19;19957;-61
2022/08/06 00:59:31;;;;;;;;;;;;;;;-143.91;100.00;64079.06;3043699;19;19939;-61
2022/08/06 01:00:33;;;;;;;;;;;;;;;-143.91;100.00;64079.06;3045307;19;19927;-60
2022/08/06 01:01:33;;;;;;;;;;;;;;;-143.91;100.00;64079.06;3045941;19;20040;-61
2022/08/06 01:02:34;;;;;;;;;;;;;;;-143.91;100.00;64079.06;3045049;19;19919;-61
2022/08/06 01:03:35;;;;;;;;;;;;;;;-143.91;100.00;64079.06;3044377;19;19927;-60
2022/08/06 01:04:36;;;;;;;;;;;;;;;-143.91;100.00;64079.06;3046425;19;19954;-61
2022/08/06 01:05:37;;;;;;;;;;;;;;;-143.91;100.00;64079.06;3042241;19;19922;-61
2022/08/06 01:06:42;;;;;;;;;;;;;;;-143.91;100.00;64079.06;3043753;19;19919;-61
2022/08/06 01:07:43;;;;;;;;;;;;;;;-143.91;100.00;64079.06;3045426;19;19950;-62
2022/08/06 01:08:44;;;;;;;;;;;;;;;-143.91;100.00;64079.06;3045146;19;20410;-61
2022/08/06 01:09:44;;;;;;;;;;;;;;;-143.91;100.00;64079.06;3043503;19;19934;-60
2022/08/06 01:10:45;;;;;;;;;;;;;;;-143.91;100.00;64079.06;3046522;19;19910;-60
2022/08/06 01:11:46;;;;;;;;;;;;;;;-143.91;100.00;64079.06;3043109;19;19931;-60
2022/08/06 01:12:47;;;;;;;;;;;;;;;-143.91;100.00;64079.06;3046283;19;20291;-60
2022/08/06 01:13:48;;;;;;;;;;;;;;;-143.91;100.00;64079.06;3041772;19;19922;-61
2022/08/06 01:14:49;;;;;;;;;;;;;;;-143.91;100.00;64079.06;3045538;19;19918;-61
2022/08/06 01:15:58;;;;;;;;;;;;;;;-143.91;100.00;64079.06;3046358;19;19918;-61
2022/08/06 01:17:02;;;;;;;;;;;;;;;-143.91;100.00;64079.06;3042355;19;19958;-60
2022/08/06 01:18:13;;;;;;;;;;;;;;;-143.91;100.00;64079.06;3044682;19;19933;-61
2022/08/06 01:19:28;;;;;;;;;;;;;;;-143.91;100.00;64079.06;3041891;19;19978;-61
2022/08/06 01:20:47;;;;;;;;;;;;;;;-143.91;100.00;64079.06;3044322;19;19938;-60
2022/08/06 01:21:54;;;;;;;;;;;;;;;-143.91;100.00;64079.06;3043477;19;19986;-61
2022/08/06 01:22:55;;;;;;;;;;;;;;;-143.91;100.00;64079.06;3043913;19;19922;-61
2022/08/06 01:24:02;;;;;;;;;;;;;;;-143.91;100.00;64079.06;3044230;19;19915;-61
2022/08/06 01:25:12;;;;;;;;;;;;;;;-143.91;100.00;64079.06;3043470;19;19942;-61
2022/08/06 01:26:23;;;;;;;;;;;;;;;-143.91;100.00;64079.06;3045231;19;19923;-61
2022/08/06 01:27:42;;;;;;;;;;;;;;;-143.91;100.00;64079.06;3043433;19;20706;-61
2022/08/06 01:28:44;;;;;;;;;;;;;;;-143.91;100.00;64079.06;3044985;19;20453;-61
2022/08/06 01:29:46;;;;;;;;;;;;;;;-143.91;100.00;64079.06;3043596;19;20003;-60
2022/08/06 01:30:48;;;;;;;;;;;;;;;-143.91;100.00;64079.06;3044154;19;19930;-61
2022/08/06 01:31:54;;;;;;;;;;;;;;;-143.91;100.00;64079.06;3043153;19;20529;-60
2022/08/06 01:32:58;;;;;;;;;;;;;;;-143.91;100.00;64079.06;3045903;19;19942;-61
2022/08/06 01:34:00;;;;;;;;;;;;;;;-143.91;100.00;64079.06;3041329;19;19927;-61
2022/08/06 01:35:02;;;;;;;;;;;;;;;-143.91;100.00;64079.06;3041863;19;20011;-61
2022/08/06 01:36:04;;;;;;;;;;;;;;;-143.91;100.00;64079.06;3045256;19;19918;-60
2022/08/06 01:37:16;;;;;;;;;;;;;;;-143.91;100.00;64079.06;3043707;19;20403;-60
2022/08/06 01:38:21;;;;;;;;;;;;;;;-143.91;100.00;64079.06;3041255;19;19919;-61
2022/08/06 01:39:22;;;;;;;;;;;;;;;-143.91;100.00;64079.06;3046269;19;19933;-60
2022/08/06 01:40:24;;;;;;;;;;;;;;;-143.91;100.00;64079.06;3042588;19;19963;-61
2022/08/06 01:41:41;;;;;;;;;;;;;;;-143.91;100.00;64079.06;3042485;19;20751;-61
2022/08/06 01:42:43;;;;;;;;;;;;;;;-143.91;100.00;64079.06;3044809;19;19938;-61
2022/08/06 01:43:44;;;;;;;;;;;;;;;-143.91;100.00;64079.06;3042819;19;19926;-61
2022/08/06 01:44:45;;;;;;;;;;;;;;;-143.91;100.00;64079.06;3043705;19;19931;-61
2022/08/06 01:45:46;;;;;;;;;;;;;;;-143.91;100.00;64079.06;3044147;19;19926;-61
2022/08/06 01:46:51;;;;;;;;;;;;;;;-143.91;100.00;64079.06;3042773;19;20474;-61
2022/08/06 01:47:52;;;;;;;;;;;;;;;-143.91;100.00;64079.06;3044500;19;19919;-60
2022/08/06 01:48:53;;;;;;;;;;;;;;;-143.91;100.00;64079.06;3045854;19;19950;-60
2022/08/06 01:49:55;;;;;;;;;;;;;;;-143.91;100.00;64079.06;3044711;19;20430;-61
2022/08/06 01:50:57;;;;;;;;;;;;;;;-143.91;100.00;64079.06;3043123;19;20484;-60
2022/08/06 01:51:58;;;;;;;;;;;;;;;-143.91;100.00;64079.06;3045812;19;20464;-60
2022/08/06 01:53:00;;;;;;;;;;;;;;;-143.91;100.00;64079.06;3043277;19;19926;-60
2022/08/06 01:54:01;;;;;;;;;;;;;;;-143.91;100.00;64079.06;3042201;19;19934;-61
2022/08/06 01:55:02;;;;;;;;;;;;;;;-143.91;100.00;64079.06;3042018;19;19927;-60
2022/08/06 01:56:04;;;;;;;;;;;;;;;-143.91;100.00;64079.06;3040234;19;19922;-61
2022/08/06 01:57:05;;;;;;;;;;;;;;;-143.91;100.00;64079.06;3040612;19;19930;-60
2022/08/06 01:58:06;;;;;;;;;;;;;;;-143.91;100.00;64079.06;3041234;19;19919;-61
2022/08/06 01:59:06;;;;;;;;;;;;;;;-143.91;100.00;64079.06;3046356;19;20750;-61
2022/08/06 02:00:07;;;;;;;;;;;;;;;-143.91;100.00;64079.06;3044699;19;19926;-61
2022/08/06 02:01:13;;;;;;;;;;;;;;;-143.91;100.00;64079.06;3045744;19;19927;-60
2022/08/06 02:02:15;;;;;;;;;;;;;;;-143.91;100.00;64079.06;3039869;19;19969;-61
2022/08/06 02:03:17;;;;;;;;;;;;;;;-143.91;100.00;64079.06;3047160;19;20033;-60
2022/08/06 02:04:18;;;;;;;;;;;;;;;-143.91;100.00;64079.06;3046566;19;19941;-60
2022/08/06 02:05:19;;;;;;;;;;;;;;;-143.91;100.00;64079.06;3046119;19;19926;-60
2022/08/06 02:06:22;;;;;;;;;;;;;;;-143.91;100.00;64079.06;3047153;19;19952;-60
2022/08/06 02:07:23;;;;;;;;;;;;;;;-143.91;100.00;64079.06;3046382;19;20280;-60
2022/08/06 02:08:25;;;;;;;;;;;;;;;-143.91;100.00;64079.06;3046316;19;19919;-61
2022/08/06 02:09:26;;;;;;;;;;;;;;;-143.91;100.00;64079.06;3043209;19;20015;-61
2022/08/06 02:10:27;;;;;;;;;;;;;;;-143.91;100.00;64079.06;3047697;19;20618;-60
2022/08/06 02:11:32;;;;;;;;;;;;;;;-143.91;100.00;64079.06;3047288;19;19919;-61
2022/08/06 02:12:32;;;;;;;;;;;;;;;-143.91;100.00;64079.06;3046702;19;19927;-60
2022/08/06 02:13:33;;;;;;;;;;;;;;;-143.91;100.00;64079.06;3048228;19;19940;-60
2022/08/06 02:14:36;;;;;;;;;;;;;;;-143.91;100.00;64079.06;3048242;19;19975;-61
2022/08/06 02:15:37;;;;;;;;;;;;;;;-143.91;100.00;64079.06;3045911;19;19926;-61
2022/08/06 02:16:38;;;;;;;;;;;;;;;-143.91;100.00;64079.06;3048304;19;19923;-60
2022/08/06 02:17:41;;;;;;;;;;;;;;;-143.91;100.00;64079.06;3046213;19;20283;-61
2022/08/06 02:18:43;;;;;;;;;;;;;;;-143.91;100.00;64079.06;3050542;19;19954;-61
2022/08/06 02:19:47;;;;;;;;;;;;;;;-143.91;100.00;64079.06;3049789;19;20219;-61
2022/08/06 02:20:49;;;;;;;;;;;;;;;-143.91;100.00;64079.06;3045610;19;19939;-60
2022/08/06 02:21:50;;;;;;;;;;;;;;;-143.91;100.00;64079.06;3048623;19;19946;-60
2022/08/06 02:22:51;;;;;;;;;;;;;;;-143.91;100.00;64079.06;3047907;19;19919;-60
2022/08/06 02:23:52;;;;;;;;;;;;;;;-143.91;100.00;64079.06;3049590;19;19917;-60
2022/08/06 02:24:53;;;;;;;;;;;;;;;-143.91;100.00;64079.06;3044290;19;20450;-60
2022/08/06 02:25:54;;;;;;;;;;;;;;;-143.91;100.00;64079.06;3047841;19;19919;-61
2022/08/06 02:26:55;;;;;;;;;;;;;;;-143.91;100.00;64079.06;3043012;19;20220;-59
2022/08/06 02:27:56;;;;;;;;;;;;;;;-143.91;100.00;64079.06;3046605;19;19926;-61
2022/08/06 02:28:57;;;;;;;;;;;;;;;-143.91;100.00;64079.06;3049361;19;20037;-60
2022/08/06 02:29:58;;;;;;;;;;;;;;;-143.91;100.00;64079.06;3049936;19;19968;-61
2022/08/06 02:30:59;;;;;;;;;;;;;;;-143.91;100.00;64079.06;3046828;19;19927;-60
2022/08/06 02:32:00;;;;;;;;;;;;;;;-143.91;100.00;64079.06;3044176;19;19922;-60
2022/08/06 02:33:01;;;;;;;;;;;;;;;-143.91;100.00;64079.06;3048236;19;20784;-61
2022/08/06 02:34:01;;;;;;;;;;;;;;;-143.91;100.00;64079.06;3044879;19;19934;-60
2022/08/06 02:35:02;;;;;;;;;;;;;;;-143.91;100.00;64079.06;3047670;19;19974;-61
2022/08/06 02:36:09;;;;;;;;;;;;;;;-143.91;100.00;64079.06;3046589;19;19919;-60
2022/08/06 02:37:15;;;;;;;;;;;;;;;-143.91;100.00;64079.06;3047346;19;19982;-61
2022/08/06 02:38:24;;;;;;;;;;;;;;;-143.91;100.00;64079.06;3050377;19;20588;-60
2022/08/06 02:39:25;;;;;;;;;;;;;;;-143.91;100.00;64079.06;3048207;19;19919;-60
2022/08/06 02:40:36;;;;;;;;;;;;;;;-143.91;100.00;64079.06;3045242;19;19922;-60
2022/08/06 02:41:41;;;;;;;;;;;;;;;-143.91;100.00;64079.06;3046170;19;19930;-61
2022/08/06 02:42:45;;;;;;;;;;;;;;;-143.91;100.00;64079.06;3048264;19;19930;-60
2022/08/06 02:44:05;;;;;;;;;;;;;;;-143.91;100.00;64079.06;3045525;19;19949;-60
2022/08/06 02:45:10;;;;;;;;;;;;;;;-143.91;100.00;64079.06;3046339;19;20304;-61
2022/08/06 02:46:11;;;;;;;;;;;;;;;-143.91;100.00;64079.06;3048222;19;19918;-60
2022/08/06 02:47:14;;;;;;;;;;;;;;;-143.91;100.00;64079.06;3045302;19;19915;-60
2022/08/06 02:48:17;;;;;;;;;;;;;;;-143.91;100.00;64079.06;3047808;19;19915;-60
2022/08/06 02:49:25;;;;;;;;;;;;;;;-143.91;100.00;64079.06;3049227;19;19930;-60
2022/08/06 02:50:39;;;;;;;;;;;;;;;-143.91;100.00;64079.06;3044412;19;19922;-61
2022/08/06 02:51:41;;;;;;;;;;;;;;;-143.91;100.00;64079.06;3047679;19;19918;-60
2022/08/06 02:52:43;;;;;;;;;;;;;;;-143.91;100.00;64079.06;3046853;19;20042;-60
2022/08/06 02:54:07;;;;;;;;;;;;;;;-143.91;100.00;64079.06;3047519;19;19958;-61
2022/08/06 02:55:10;;;;;;;;;;;;;;;-143.91;100.00;64079.06;3047506;19;20803;-61
2022/08/06 02:56:12;;;;;;;;;;;;;;;-143.91;100.00;64079.06;3046571;19;19923;-59
2022/08/06 02:57:14;;;;;;;;;;;;;;;-143.91;100.00;64079.06;3046734;19;19942;-61
2022/08/06 02:58:27;;;;;;;;;;;;;;;-143.91;100.00;64079.06;3047504;19;19923;-60
2022/08/06 02:59:29;;;;;;;;;;;;;;;-143.91;100.00;64079.06;3045392;19;19958;-60
2022/08/06 03:00:30;;;;;;;;;;;;;;;-143.91;100.00;64079.06;3045557;19;19949;-60
2022/08/06 03:01:43;;;;;;;;;;;;;;;-143.91;100.00;64079.06;3047704;19;19957;-60
2022/08/06 03:02:44;;;;;;;;;;;;;;;-143.91;100.00;64079.06;3047507;19;19934;-61
2022/08/06 03:03:45;;;;;;;;;;;;;;;-143.91;100.00;64079.06;3045775;19;20297;-61
2022/08/06 03:04:47;;;;;;;;;;;;;;;-143.91;100.00;64079.06;3048995;19;19926;-60
2022/08/06 03:05:48;;;;;;;;;;;;;;;-143.91;100.00;64079.06;3046180;19;19923;-60
2022/08/06 03:06:48;;;;;;;;;;;;;;;-143.91;100.00;64079.06;3045936;19;19953;-61
2022/08/06 03:07:51;;;;;;;;;;;;;;;-143.91;100.00;64079.06;3045081;19;19919;-61
2022/08/06 03:08:52;;;;;;;;;;;;;;;-143.91;100.00;64079.06;3049788;19;20332;-61
2022/08/06 03:09:53;;;;;;;;;;;;;;;-143.91;100.00;64079.06;3044764;19;20159;-61
2022/08/06 03:10:54;;;;;;;;;;;;;;;-143.91;100.00;64079.06;3047368;19;19922;-60
2022/08/06 03:11:55;;;;;;;;;;;;;;;-143.91;100.00;64079.06;3046586;19;19943;-63
2022/08/06 03:12:55;;;;;;;;;;;;;;;-143.91;100.00;64079.06;3047296;19;20042;-60
2022/08/06 03:13:56;;;;;;;;;;;;;;;-143.91;100.00;64079.06;3047470;19;19922;-60
2022/08/06 03:14:58;;;;;;;;;;;;;;;-143.91;100.00;64079.06;3048121;19;19915;-60
2022/08/06 03:15:59;;;;;;;;;;;;;;;-143.91;100.00;64079.06;3048384;19;20006;-60
2022/08/06 03:17:00;;;;;;;;;;;;;;;-143.91;100.00;64079.06;3044686;19;19918;-60
2022/08/06 03:18:02;;;;;;;;;;;;;;;-143.91;100.00;64079.06;3044771;19;20316;-61
2022/08/06 03:19:03;;;;;;;;;;;;;;;-143.91;100.00;64079.06;3048248;19;19987;-60
2022/08/06 03:20:04;;;;;;;;;;;;;;;-143.91;100.00;64079.06;3045357;19;19918;-61
2022/08/06 03:21:05;;;;;;;;;;;;;;;-143.91;100.00;64079.06;3047770;19;19956;-61
2022/08/06 03:22:06;;;;;;;;;;;;;;;-143.91;100.00;64079.06;3048827;19;20336;-60
2022/08/06 03:23:08;;;;;;;;;;;;;;;-143.91;100.00;64079.06;3045457;19;20487;-60
2022/08/06 03:24:09;;;;;;;;;;;;;;;-143.91;100.00;64079.06;3049481;19;19975;-60
2022/08/06 03:25:10;;;;;;;;;;;;;;;-143.91;100.00;64079.06;3046008;19;20525;-61
2022/08/06 03:26:11;;;;;;;;;;;;;;;-143.91;100.00;64079.06;3045222;19;19971;-60
2022/08/06 03:27:15;;;;;;;;;;;;;;;-143.91;100.00;64079.06;3046074;19;19980;-61
2022/08/06 03:28:15;;;;;;;;;;;;;;;-143.91;100.00;64079.06;3044362;19;19926;-60
2022/08/06 03:29:16;;;;;;;;;;;;;;;-143.91;100.00;64079.06;3045719;19;19974;-60
2022/08/06 03:30:17;;;;;;;;;;;;;;;-143.91;100.00;64079.06;3044518;19;19946;-61
2022/08/06 03:31:18;;;;;;;;;;;;;;;-143.91;100.00;64079.06;3047981;19;20046;-61
2022/08/06 03:32:19;;;;;;;;;;;;;;;-143.91;100.00;64079.06;3048189;19;20650;-60
2022/08/06 03:33:20;;;;;;;;;;;;;;;-143.91;100.00;64079.06;3043911;19;19931;-60
2022/08/06 03:34:21;;;;;;;;;;;;;;;-143.91;100.00;64079.06;3045090;19;19930;-60
2022/08/06 03:35:22;;;;;;;;;;;;;;;-143.91;100.00;64079.06;3047808;19;19914;-60
2022/08/06 03:36:22;;;;;;;;;;;;;;;-143.91;100.00;64079.06;3045850;19;19962;-60
2022/08/06 03:37:23;;;;;;;;;;;;;;;-143.91;100.00;64079.06;3044725;19;19923;-60
2022/08/06 03:38:25;;;;;;;;;;;;;;;-143.91;100.00;64079.06;3047298;19;19926;-60
2022/08/06 03:39:26;;;;;;;;;;;;;;;-143.91;100.00;64079.06;3044655;19;19933;-61
2022/08/06 03:40:27;;;;;;;;;;;;;;;-143.91;100.00;64079.06;3049430;19;19936;-60
2022/08/06 03:41:28;;;;;;;;;;;;;;;-143.91;100.00;64079.06;3045268;19;20344;-60
2022/08/06 03:42:29;;;;;;;;;;;;;;;-143.91;100.00;64079.06;3045579;19;20291;-61
2022/08/06 03:43:30;;;;;;;;;;;;;;;-143.91;100.00;64079.06;3048089;19;19937;-61
2022/08/06 03:44:31;;;;;;;;;;;;;;;-143.91;100.00;64079.06;3048263;19;20339;-60
2022/08/06 03:45:32;;;;;;;;;;;;;;;-143.91;100.00;64079.06;3049007;19;19918;-60
2022/08/06 03:46:36;;;;;;;;;;;;;;;-143.91;100.00;64079.06;3047407;19;20006;-60
2022/08/06 03:47:46;;;;;;;;;;;;;;;-143.91;100.00;64079.06;3045503;19;19922;-61
2022/08/06 03:48:47;;;;;;;;;;;;;;;-143.91;100.00;64079.06;3046673;19;19950;-61
2022/08/06 03:49:50;;;;;;;;;;;;;;;-143.91;100.00;64079.06;3046773;19;19915;-60
2022/08/06 03:50:51;;;;;;;;;;;;;;;-143.91;100.00;64079.06;3045005;19;19990;-60
2022/08/06 03:51:53;;;;;;;;;;;;;;;-143.91;100.00;64079.06;3047508;19;20435;-60
2022/08/06 03:52:54;;;;;;;;;;;;;;;-143.91;100.00;64079.06;3047520;19;19939;-60
2022/08/06 03:53:56;;;;;;;;;;;;;;;-143.91;100.00;64079.06;3044883;19;19926;-61
2022/08/06 03:54:59;;;;;;;;;;;;;;;-143.91;100.00;64079.06;3048229;19;19926;-60
2022/08/06 03:56:00;;;;;;;;;;;;;;;-143.91;100.00;64079.06;3043633;19;21002;-61
2022/08/06 03:57:05;;;;;;;;;;;;;;;-143.91;100.00;64079.06;3045529;19;19922;-60
2022/08/06 03:58:07;;;;;;;;;;;;;;;-143.91;100.00;64079.06;3049520;19;19926;-61
2022/08/06 03:59:08;;;;;;;;;;;;;;;-143.91;100.00;64079.06;3049434;19;19986;-60
2022/08/06 04:00:09;;;;;;;;;;;;;;;-143.91;100.00;64079.06;3048391;19;19926;-61
2022/08/06 04:01:14;;;;;;;;;;;;;;;-143.91;100.00;64079.06;3049674;19;19930;-60
2022/08/06 04:02:15;;;;;;;;;;;;;;;-143.91;100.00;64079.06;3047553;19;20327;-61
2022/08/06 04:03:16;;;;;;;;;;;;;;;-143.91;100.00;64079.06;3050144;19;20428;-60
2022/08/06 04:04:18;;;;;;;;;;;;;;;-143.91;100.00;64079.06;3049800;19;19919;-61
2022/08/06 04:05:26;;;;;;;;;;;;;;;-143.91;100.00;64079.06;3048316;19;19933;-61
2022/08/06 04:06:27;;;;;;;;;;;;;;;-143.91;100.00;64079.06;3050669;19;19929;-61
2022/08/06 04:07:28;;;;;;;;;;;;;;;-143.91;100.00;64079.06;3049896;19;19939;-60
2022/08/06 04:08:29;;;;;;;;;;;;;;;-143.91;100.00;64079.06;3046646;19;19922;-61
2022/08/06 04:09:30;;;;;;;;;;;;;;;-143.91;100.00;64079.06;3049373;19;20010;-60
2022/08/06 04:10:33;;;;;;;;;;;;;;;-143.91;100.00;64079.06;3049659;19;19927;-60
2022/08/06 04:11:33;;;;;;;;;;;;;;;-143.91;100.00;64079.06;3048921;19;19930;-60
2022/08/06 04:12:34;;;;;;;;;;;;;;;-143.91;100.00;64079.06;3048316;19;20037;-60
2022/08/06 04:13:36;;;;;;;;;;;;;;;-143.91;100.00;64079.06;3050975;19;19911;-62
2022/08/06 04:14:37;;;;;;;;;;;;;;;-143.91;100.00;64079.06;3048080;19;20521;-60
2022/08/06 04:15:38;;;;;;;;;;;;;;;-143.91;100.00;64079.06;3050215;19;20820;-60
2022/08/06 04:16:39;;;;;;;;;;;;;;;-143.91;100.00;64079.06;3050924;19;19942;-60
2022/08/06 04:17:41;;;;;;;;;;;;;;;-143.91;100.00;64079.06;3047312;19;19961;-61
2022/08/06 04:18:42;;;;;;;;;;;;;;;-143.91;100.00;64079.06;3051991;19;19919;-60
2022/08/06 04:19:43;;;;;;;;;;;;;;;-143.91;100.00;64079.06;3048416;19;22164;-60
2022/08/06 04:20:45;;;;;;;;;;;;;;;-143.91;100.00;64079.06;3048045;19;19978;-60
2022/08/06 04:21:46;;;;;;;;;;;;;;;-143.91;100.00;64079.06;3049788;19;20791;-60
2022/08/06 04:22:47;;;;;;;;;;;;;;;-143.91;100.00;64079.06;3050944;19;20331;-60
2022/08/06 04:23:49;;;;;;;;;;;;;;;-143.91;100.00;64079.06;3048460;19;19915;-60
2022/08/06 04:24:49;;;;;;;;;;;;;;;-143.91;100.00;64079.06;3047423;19;19919;-61
2022/08/06 04:25:53;;;;;;;;;;;;;;;-143.91;100.00;64079.06;3051840;19;19926;-61
2022/08/06 04:26:54;;;;;;;;;;;;;;;-143.91;100.00;64079.06;3047032;19;20548;-60
2022/08/06 04:27:55;;;;;;;;;;;;;;;-143.91;100.00;64079.06;3048377;19;20263;-60
2022/08/06 04:28:56;;;;;;;;;;;;;;;-143.91;100.00;64079.06;3050326;19;20018;-60
2022/08/06 04:29:57;;;;;;;;;;;;;;;-143.91;100.00;64079.06;3045862;19;19918;-61
2022/08/06 04:30:58;;;;;;;;;;;;;;;-143.91;100.00;64079.06;3045066;19;19990;-60
2022/08/06 04:31:59;;;;;;;;;;;;;;;-143.91;100.00;64079.06;3050855;19;19986;-60
2022/08/06 04:33:01;;;;;;;;;;;;;;;-143.91;100.00;64079.06;3046199;19;19952;-61
2022/08/06 04:34:02;;;;;;;;;;;;;;;-143.91;100.00;64079.06;3049693;19;20512;-61
2022/08/06 04:35:03;;;;;;;;;;;;;;;-143.91;100.00;64079.06;3046024;19;20629;-61
2022/08/06 04:36:07;;;;;;;;;;;;;;;-143.91;100.00;64079.06;3047685;19;19923;-61
2022/08/06 04:37:08;;;;;;;;;;;;;;;-143.91;100.00;64079.06;3050786;19;19923;-60
2022/08/06 04:38:09;;;;;;;;;;;;;;;-143.91;100.00;64079.06;3047805;19;20212;-61
2022/08/06 04:39:10;;;;;;;;;;;;;;;-143.91;100.00;64079.06;3048170;19;19919;-60
2022/08/06 04:40:11;;;;;;;;;;;;;;;-143.91;100.00;64079.06;3052552;19;19919;-60
2022/08/06 04:41:11;;;;;;;;;;;;;;;-143.91;100.00;64079.06;3047092;19;19990;-61
2022/08/06 04:42:12;;;;;;;;;;;;;;;-143.91;100.00;64079.06;3050754;19;20383;-61
2022/08/06 04:43:13;;;;;;;;;;;;;;;-143.91;100.00;64079.06;3048452;19;19952;-60
2022/08/06 04:44:14;;;;;;;;;;;;;;;-143.91;100.00;64079.06;3048241;19;19962;-60
2022/08/06 04:45:15;;;;;;;;;;;;;;;-143.91;100.00;64079.06;3050644;19;19976;-60
2022/08/06 04:46:15;;;;;;;;;;;;;;;-143.91;100.00;64079.06;3048033;19;19988;-61
2022/08/06 04:47:16;;;;;;;;;;;;;;;-143.91;100.00;64079.06;3049244;19;19923;-60
2022/08/06 04:48:17;;;;;;;;;;;;;;;-143.91;100.00;64079.06;3049066;19;20363;-60
2022/08/06 04:49:18;;;;;;;;;;;;;;;-143.91;100.00;64079.06;3049284;19;19923;-60
2022/08/06 04:50:19;;;;;;;;;;;;;;;-143.91;100.00;64079.06;3049755;19;19919;-60
2022/08/06 04:51:21;;;;;;;;;;;;;;;-143.91;100.00;64079.06;3046085;19;19919;-60
2022/08/06 04:52:26;;;;;;;;;;;;;;;-143.91;100.00;64079.06;3048556;19;20537;-61
2022/08/06 04:53:27;;;;;;;;;;;;;;;-143.91;100.00;64079.06;3051967;19;19941;-61
2022/08/06 04:54:28;;;;;;;;;;;;;;;-143.91;100.00;64079.06;3048856;19;19919;-60
2022/08/06 04:55:29;;;;;;;;;;;;;;;-143.91;100.00;64079.06;3048983;19;19955;-60
2022/08/06 04:56:29;;;;;;;;;;;;;;;-143.91;100.00;64079.06;3050915;19;19923;-60
2022/08/06 04:57:30;;;;;;;;;;;;;;;-143.91;100.00;64079.06;3045828;19;20808;-60
2022/08/06 04:58:31;;;;;;;;;;;;;;;-143.91;100.00;64079.06;3050755;19;19919;-60
2022/08/06 04:59:32;;;;;;;;;;;;;;;-143.91;100.00;64079.06;3050236;19;19930;-59
2022/08/06 05:00:34;;;;;;;;;;;;;;;-143.91;100.00;64079.06;3049706;19;19926;-61
2022/08/06 05:01:35;;;;;;;;;;;;;;;-143.91;100.00;64079.06;3050888;19;19926;-61
2022/08/06 05:02:36;;;;;;;;;;;;;;;-143.91;100.00;64079.06;3049466;19;20103;-60
2022/08/06 05:03:36;;;;;;;;;;;;;;;-143.91;100.00;64079.06;3049915;19;19919;-60
2022/08/06 05:04:37;;;;;;;;;;;;;;;-143.91;100.00;64079.06;3050149;19;19918;-61
2022/08/06 05:05:39;;;;;;;;;;;;;;;-143.91;100.00;64079.06;3048874;19;20011;-61
2022/08/06 05:06:43;;;;;;;;;;;;;;;-143.91;100.00;64079.06;3049550;19;20443;-60
2022/08/06 05:07:44;;;;;;;;;;;;;;;-143.91;100.00;64079.06;3048535;19;19925;-61
2022/08/06 05:08:46;;;;;;;;;;;;;;;-143.91;100.00;64079.06;3047371;19;19930;-61
2022/08/06 05:09:48;;;;;;;;;;;;;;;-143.91;100.00;64079.06;3046640;19;19964;-61
2022/08/06 05:10:53;;;;;;;;;;;;;;;-143.91;100.00;64079.06;3049358;19;19923;-61
2022/08/06 05:11:56;;;;;;;;;;;;;;;-143.91;100.00;64079.06;3050571;19;19926;-61